Cocentaina, Spain
Current Conditions -  °F | °C
As of 10:30 PM on Friday 19 Dec 2014 (Local Time) from LEAL Reporting Station
Clear Clear  
Wind Chill: 52°   Ceiling: Unl
Heat Index: 52°   Visibility: 6mi
Dew Point: 48°   Wind: 6mph
Humidity: 88%   Direction: 250°WSW
Pressure: 30.36"   Gusts: NA
Location:  38.74°N, 0.44°W
Report Text: LEAL 192130Z 25005KT CAVOK 11/09 Q1028 NOSIG
Loading
Personal Weather Stations






























Interactive Weather Map New forecast layout! Learn more

10-Day Weather Forecast

Advertisements
Track Severe Weather on mobile